Time;durP1;ratioP1;P1;durP2;ratioP2;P2;SDS_P1;SDS_P2;PMS_P1;PMS_P2;Temp;Humidity;BMP_temperature;BMP_pressure;BME280_temperature;BME280_humidity;BME280_pressure;Samples;Min_cycle;Max_cycle;Signal;HPM_P1;HPM_P2
2022/01/06 00:00:35;;;;;;;3.83;1.27;;;;;;;0.78;71.35;95869.94;5046612;28;20060;-77
2022/01/06 00:03:02;;;;;;;3.60;1.38;;;;;;;0.75;72.20;95865.13;5047313;28;20099;-75
2022/01/06 00:05:28;;;;;;;6.72;1.40;;;;;;;0.67;71.75;95863.75;5050487;28;20056;-78
2022/01/06 00:07:55;;;;;;;9.10;1.58;;;;;;;0.69;71.90;95868.88;5050397;28;20530;-78
2022/01/06 00:10:21;;;;;;;6.75;1.40;;;;;;;0.69;71.85;95874.22;5048012;28;20048;-76
2022/01/06 00:13:03;;;;;;;6.07;1.33;;;;;;;0.63;71.71;95870.75;5030429;28;20056;-76
2022/01/06 00:15:36;;;;;;;9.73;1.80;;;;;;;0.64;72.24;95875.03;5030363;28;20128;-78
2022/01/06 00:18:28;;;;;;;6.85;1.60;;;;;;;0.61;72.19;95870.19;5029990;28;20140;-77
2022/01/06 00:23:39;;;;;;;6.75;1.40;;;;;;;0.55;72.87;95857.06;5030521;28;20052;-76
2022/01/06 00:26:07;;;;;;;6.95;1.90;;;;;;;0.53;72.64;95857.34;5029698;28;20159;-76
2022/01/06 00:28:34;;;;;;;9.25;2.03;;;;;;;0.59;73.10;95872.34;5030502;28;20056;-76
2022/01/06 00:31:02;;;;;;;5.88;1.40;;;;;;;0.62;73.19;95866.44;5029792;28;20132;-76
2022/01/06 00:33:30;;;;;;;6.40;1.55;;;;;;;0.63;73.17;95868.06;5029943;28;20041;-78
2022/01/06 00:35:56;;;;;;;7.38;2.08;;;;;;;0.65;73.18;95873.94;5030278;28;20061;-76
2022/01/06 00:38:25;;;;;;;3.30;1.50;;;;;;;0.63;72.58;95877.97;5029957;28;20112;-77
2022/01/06 00:40:52;;;;;;;6.38;1.70;;;;;;;0.63;72.94;95869.94;5032223;28;20072;-76
2022/01/06 00:43:18;;;;;;;6.07;1.50;;;;;;;0.58;73.24;95870.75;5029616;28;20053;-76
2022/01/06 00:45:45;;;;;;;4.72;1.10;;;;;;;0.57;73.92;95874.47;5029896;28;20049;-76
2022/01/06 00:48:13;;;;;;;8.77;1.38;;;;;;;0.58;74.15;95875.28;5029540;28;20052;-76
2022/01/06 00:50:41;;;;;;;5.68;1.88;;;;;;;0.60;74.12;95879.31;5029700;28;20417;-76
2022/01/06 00:53:09;;;;;;;3.75;1.48;;;;;;;0.62;74.38;95871.78;5029623;28;20063;-76
2022/01/06 00:55:37;;;;;;;7.63;1.70;;;;;;;0.68;74.30;95878.78;5030067;28;20060;-76
2022/01/06 00:58:04;;;;;;;4.90;1.63;;;;;;;0.66;74.57;95875.56;5029366;28;20053;-75
2022/01/06 01:00:38;;;;;;;5.20;1.60;;;;;;;0.62;75.05;95877.16;5028587;28;20045;-76
2022/01/06 01:03:05;;;;;;;6.55;1.80;;;;;;;0.57;75.34;95885.19;5027142;28;20049;-77
2022/01/06 01:05:33;;;;;;;8.18;1.60;;;;;;;0.56;75.32;95905.00;5028445;28;20132;-76
2022/01/06 01:08:00;;;;;;;5.43;1.70;;;;;;;0.51;76.18;95896.97;5029444;28;20053;-76
2022/01/06 01:10:26;;;;;;;5.13;1.85;;;;;;;0.46;76.41;95899.63;5033711;28;20064;-77
2022/01/06 01:12:53;;;;;;;8.10;2.25;;;;;;;0.44;76.59;95896.44;5049550;28;20053;-76
2022/01/06 01:15:20;;;;;;;5.60;1.63;;;;;;;0.41;76.78;95904.97;5047863;28;20053;-76
2022/01/06 01:17:48;;;;;;;4.90;1.70;;;;;;;0.41;77.18;95913.00;5049464;28;20084;-76
2022/01/06 01:20:16;;;;;;;10.18;2.20;;;;;;;0.41;77.42;95907.66;5048416;28;20069;-76
2022/01/06 01:22:44;;;;;;;6.60;2.70;;;;;;;0.39;77.44;95915.16;5049136;28;20055;-76
2022/01/06 01:25:11;;;;;;;5.18;1.83;;;;;;;0.36;77.80;95902.28;5048906;28;20059;-76
2022/01/06 01:27:41;;;;;;;5.30;1.67;;;;;;;0.38;78.12;95908.19;5049138;28;20053;-76
2022/01/06 01:30:10;;;;;;;5.95;1.98;;;;;;;0.33;78.60;95910.88;5048693;28;20079;-76
2022/01/06 01:32:38;;;;;;;6.57;2.17;;;;;;;0.32;78.77;95915.41;5048890;28;20048;-76
2022/01/06 01:35:08;;;;;;;6.20;1.70;;;;;;;0.29;79.30;95907.09;5048900;28;20435;-76
2022/01/06 01:37:36;;;;;;;5.47;2.17;;;;;;;0.31;79.49;95907.63;5048931;28;20053;-76
2022/01/06 01:40:07;;;;;;;12.32;2.28;;;;;;;0.28;79.62;95910.84;5048518;28;20049;-76
2022/01/06 01:42:34;;;;;;;7.45;2.40;;;;;;;0.25;79.61;95910.28;5028808;28;20045;-76
2022/01/06 01:45:02;;;;;;;5.97;2.03;;;;;;;0.27;79.82;95917.28;5028957;28;20049;-76
2022/01/06 01:47:31;;;;;;;8.98;1.80;;;;;;;0.26;80.18;95916.44;5028383;28;20045;-76
2022/01/06 01:50:10;;;;;;;5.88;2.45;;;;;;;0.21;80.56;95914.59;5028852;28;20618;-76
2022/01/06 01:52:37;;;;;;;7.82;2.45;;;;;;;0.17;80.62;95913.50;5028637;28;20045;-76
2022/01/06 01:55:06;;;;;;;7.63;1.92;;;;;;;0.21;80.93;95914.59;5028248;28;20056;-75
2022/01/06 01:57:33;;;;;;;9.27;2.40;;;;;;;0.23;80.98;95920.47;5028450;28;20496;-76
2022/01/06 01:59:59;;;;;;;6.15;2.08;;;;;;;0.24;81.17;95919.41;5028360;28;20049;-76
2022/01/06 02:02:27;;;;;;;4.82;2.22;;;;;;;0.16;80.92;95927.16;5027718;28;20046;-76
2022/01/06 02:04:54;;;;;;;9.55;2.10;;;;;;;0.11;81.17;95930.63;5028269;28;20080;-76
2022/01/06 02:07:21;;;;;;;10.18;2.10;;;;;;;0.19;81.25;95930.09;5028143;28;20057;-76
2022/01/06 02:09:47;;;;;;;6.68;2.15;;;;;;;0.22;80.75;95921.53;5026337;28;20053;-76
2022/01/06 02:12:24;;;;;;;8.98;1.88;;;;;;;0.24;80.65;95918.59;5030176;28;20056;-76
2022/01/06 02:14:51;;;;;;;6.72;2.20;;;;;;;0.21;80.62;95929.84;5028382;28;20741;-76
2022/01/06 02:17:17;;;;;;;6.50;2.53;;;;;;;0.28;80.63;95934.94;5027830;28;20054;-76
2022/01/06 02:19:53;;;;;;;3.75;1.75;;;;;;;0.29;80.23;95932.00;5046159;28;20048;-77
2022/01/06 02:22:20;;;;;;;7.85;2.40;;;;;;;0.35;80.20;95940.84;5047485;28;20076;-76
2022/01/06 02:24:46;;;;;;;5.63;1.88;;;;;;;0.40;80.05;95938.19;5048247;28;20062;-77
2022/01/06 02:27:13;;;;;;;5.88;2.03;;;;;;;0.41;79.47;95951.31;5047217;28;20044;-77
2022/01/06 02:29:39;;;;;;;6.85;1.90;;;;;;;0.43;79.54;95948.41;5047711;28;20102;-76
2022/01/06 02:32:11;;;;;;;9.50;2.25;;;;;;;0.43;79.63;95948.41;5047373;28;20057;-76
2022/01/06 02:34:37;;;;;;;4.03;2.10;;;;;;;0.46;79.53;95947.84;5048019;28;20047;-76
2022/01/06 02:37:06;;;;;;;10.82;2.15;;;;;;;0.45;79.42;95948.94;5047537;28;20049;-76
2022/01/06 02:39:32;;;;;;;4.90;2.00;;;;;;;0.46;79.45;95953.22;5047642;28;20059;-76
2022/01/06 02:41:59;;;;;;;6.10;2.05;;;;;;;0.43;79.61;95951.06;5032695;28;20045;-76
2022/01/06 02:44:26;;;;;;;7.80;1.85;;;;;;;0.48;79.47;95951.09;5027631;28;20053;-76
2022/01/06 02:46:53;;;;;;;5.10;1.90;;;;;;;0.48;79.19;95957.25;5028213;28;20073;-76
2022/01/06 02:49:20;;;;;;;8.80;2.65;;;;;;;0.48;79.46;95948.41;5027341;28;20061;-77
2022/01/06 02:51:47;;;;;;;6.47;2.22;;;;;;;0.49;79.55;95953.50;5027433;28;20057;-76
2022/01/06 02:54:16;;;;;;;6.55;2.33;;;;;;;0.43;79.72;95948.41;5027474;28;20060;-77
2022/01/06 02:56:43;;;;;;;7.15;2.60;;;;;;;0.40;80.70;95949.72;5027424;28;20536;-76
2022/01/06 02:59:09;;;;;;;6.05;1.98;;;;;;;0.39;81.19;95958.03;5027422;28;20056;-76
2022/01/06 03:01:40;;;;;;;5.55;2.40;;;;;;;0.39;81.58;95963.38;5027389;28;20048;-76
2022/01/06 03:04:07;;;;;;;7.43;2.40;;;;;;;0.40;82.05;95964.97;5027526;28;20049;-76
2022/01/06 03:06:33;;;;;;;5.15;2.35;;;;;;;0.41;82.37;95961.22;5027692;28;20049;-76
2022/01/06 03:09:00;;;;;;;5.63;2.20;;;;;;;0.34;82.56;95966.03;5027879;28;20080;-76
2022/01/06 03:11:28;;;;;;;7.60;2.08;;;;;;;0.29;83.01;95968.69;5029633;28;20511;-76
2022/01/06 03:13:55;;;;;;;8.05;2.50;;;;;;;0.28;83.64;95967.09;5027369;28;20049;-76
2022/01/06 03:16:21;;;;;;;8.38;2.63;;;;;;;0.22;83.80;95975.09;5027469;28;20062;-76
2022/01/06 03:18:48;;;;;;;10.63;2.55;;;;;;;0.27;83.76;95966.28;5027707;28;20056;-76
2022/01/06 03:21:15;;;;;;;6.25;2.50;;;;;;;0.24;83.06;95972.94;5026924;28;20049;-76
2022/01/06 03:23:41;;;;;;;7.18;2.33;;;;;;;0.21;83.10;95973.50;5027506;28;20041;-76
2022/01/06 03:26:08;;;;;;;9.50;2.85;;;;;;;0.24;82.96;95975.63;5027269;28;20053;-76
2022/01/06 03:28:36;;;;;;;10.68;2.45;;;;;;;0.31;82.83;95982.63;5027582;28;20052;-76
2022/01/06 03:31:03;;;;;;;8.32;2.67;;;;;;;0.36;82.56;95982.63;5026904;28;20087;-75
2022/01/06 03:33:29;;;;;;;5.75;2.30;;;;;;;0.36;81.88;95985.31;5027211;28;20057;-76
2022/01/06 03:35:56;;;;;;;6.97;2.28;;;;;;;0.33;81.94;95985.84;5027682;28;20057;-76
2022/01/06 03:38:23;;;;;;;5.82;2.13;;;;;;;0.34;82.25;95992.81;5028707;28;20045;-76
2022/01/06 03:40:49;;;;;;;6.88;2.67;;;;;;;0.37;81.93;95987.75;5031271;28;20073;-76
2022/01/06 03:43:16;;;;;;;8.32;2.53;;;;;;;0.39;81.74;95992.84;5030734;28;20053;-76
2022/01/06 03:45:44;;;;;;;8.88;2.40;;;;;;;0.38;82.16;95993.91;5039983;28;20048;-76
2022/01/06 03:48:10;;;;;;;7.22;3.10;;;;;;;0.35;82.03;95984.50;5050846;28;20049;-78
2022/01/06 03:50:37;;;;;;;5.68;2.30;;;;;;;0.34;82.52;95990.13;5050624;28;20049;-76
2022/01/06 03:53:03;;;;;;;5.95;2.53;;;;;;;0.28;82.93;95983.16;5050453;28;20060;-75
2022/01/06 03:55:30;;;;;;;7.28;2.50;;;;;;;0.22;83.55;95993.84;5050985;28;20056;-76
2022/01/06 03:57:56;;;;;;;7.55;2.97;;;;;;;0.22;83.54;95996.53;5050928;28;20053;-76
2022/01/06 04:00:23;;;;;;;6.72;2.90;;;;;;;0.25;83.56;95990.63;5050283;28;20045;-76
2022/01/06 04:02:51;;;;;;;7.80;2.92;;;;;;;0.28;83.78;95989.31;5050161;28;20060;-77
2022/01/06 04:05:18;;;;;;;13.95;3.40;;;;;;;0.34;84.05;96006.22;5050247;28;20048;-76
2022/01/06 04:07:44;;;;;;;5.65;2.78;;;;;;;0.33;84.36;96001.94;5050516;28;20487;-76
2022/01/06 04:10:12;;;;;;;7.38;3.17;;;;;;;0.24;85.03;96010.44;5049841;28;20049;-77
2022/01/06 04:12:39;;;;;;;8.00;2.85;;;;;;;0.23;85.76;96003.47;5050363;28;20427;-77
2022/01/06 04:15:11;;;;;;;6.60;2.75;;;;;;;0.21;86.00;96002.16;5045115;28;20049;-75
2022/01/06 04:17:37;;;;;;;9.77;3.25;;;;;;;0.16;86.21;96005.59;5030796;28;20071;-78
2022/01/06 04:20:07;;;;;;;8.05;3.33;;;;;;;0.14;86.70;96005.03;5030140;28;20053;-75
2022/01/06 04:22:34;;;;;;;9.48;3.30;;;;;;;0.17;86.26;96012.56;5030410;28;20079;-75
2022/01/06 04:25:01;;;;;;;12.75;3.60;;;;;;;0.21;85.75;96016.34;5030241;28;20053;-77
2022/01/06 04:27:27;;;;;;;5.43;2.65;;;;;;;0.27;85.51;96019.03;5029976;28;20079;-78
2022/01/06 04:29:54;;;;;;;8.00;2.90;;;;;;;0.24;85.04;96023.03;5030076;28;20054;-77
2022/01/06 04:32:20;;;;;;;5.80;2.97;;;;;;;0.25;85.05;96028.13;5030009;28;20053;-77
2022/01/06 04:34:47;;;;;;;8.52;3.03;;;;;;;0.28;84.98;96024.13;5030043;28;20531;-77
2022/01/06 04:37:15;;;;;;;7.22;3.00;;;;;;;0.25;84.74;96028.13;5029283;28;20056;-78
2022/01/06 04:39:42;;;;;;;7.88;2.83;;;;;;;0.29;84.99;96028.41;5029965;28;20048;-78
2022/01/06 04:42:08;;;;;;;7.03;2.92;;;;;;;0.28;85.60;96028.69;5029787;28;20050;-77
2022/01/06 04:44:35;;;;;;;8.25;3.70;;;;;;;0.25;85.54;96033.47;5030508;28;20045;-77
2022/01/06 04:47:01;;;;;;;7.00;2.92;;;;;;;0.20;85.92;96036.13;5029490;28;20053;-78
2022/01/06 04:49:28;;;;;;;9.55;3.58;;;;;;;0.17;85.89;96030.50;5029357;28;20050;-77
2022/01/06 04:51:55;;;;;;;7.10;2.83;;;;;;;0.13;85.89;96029.41;5029579;28;20052;-77
2022/01/06 04:54:23;;;;;;;11.43;3.47;;;;;;;0.11;86.02;96037.69;5029166;28;20045;-78
2022/01/06 04:56:49;;;;;;;10.98;3.60;;;;;;;0.13;86.15;96037.44;5029643;28;20076;-78
2022/01/06 04:59:16;;;;;;;8.90;2.97;;;;;;;0.17;86.05;96043.88;5029353;28;20056;-77
2022/01/06 05:01:42;;;;;;;8.35;3.40;;;;;;;0.21;85.82;96043.13;5029242;28;20522;-77
2022/01/06 05:04:09;;;;;;;11.65;4.72;;;;;;;0.25;85.69;96054.09;5028900;28;20053;-77
2022/01/06 05:06:35;;;;;;;8.13;3.17;;;;;;;0.24;85.53;96052.50;5029235;28;20055;-77
2022/01/06 05:09:03;;;;;;;8.45;3.28;;;;;;;0.23;85.51;96051.69;5028767;28;20046;-77
2022/01/06 05:11:30;;;;;;;6.07;3.05;;;;;;;0.24;85.29;96050.63;5029045;28;20045;-77
2022/01/06 05:13:57;;;;;;;7.65;2.97;;;;;;;0.25;84.99;96060.25;5029131;28;20064;-78
2022/01/06 05:16:24;;;;;;;8.10;2.78;;;;;;;0.31;85.21;96058.41;5028854;28;20530;-77
2022/01/06 05:18:50;;;;;;;6.53;3.03;;;;;;;0.37;85.17;96056.59;5029055;28;20060;-77
2022/01/06 05:21:17;;;;;;;10.68;3.15;;;;;;;0.41;84.96;96044.25;5028673;28;20058;-77
2022/01/06 05:23:43;;;;;;;7.88;3.60;;;;;;;0.37;84.90;96048.56;5028952;28;20496;-77
2022/01/06 05:26:10;;;;;;;8.85;3.15;;;;;;;0.35;85.42;96053.34;5028618;28;20053;-77
2022/01/06 05:28:37;;;;;;;10.32;3.47;;;;;;;0.32;85.65;96053.88;5029001;28;20058;-77
2022/01/06 05:31:04;;;;;;;8.90;3.65;;;;;;;0.32;86.15;96064.59;5028393;28;20064;-76
2022/01/06 05:33:31;;;;;;;7.90;3.53;;;;;;;0.30;86.00;96067.50;5029155;28;20052;-77
2022/01/06 05:35:58;;;;;;;7.50;2.92;;;;;;;0.32;85.82;96062.72;5028793;28;20057;-77
2022/01/06 05:38:24;;;;;;;8.30;3.25;;;;;;;0.33;85.62;96060.84;5028452;28;20056;-78
2022/01/06 05:40:51;;;;;;;6.88;3.30;;;;;;;0.31;85.68;96058.41;5028730;28;20049;-77
2022/01/06 05:43:19;;;;;;;5.43;3.00;;;;;;;0.33;85.68;96066.19;5028347;28;20053;-77
2022/01/06 05:45:47;;;;;;;10.77;3.60;;;;;;;0.36;86.00;96076.38;5029226;28;20049;-77
2022/01/06 05:48:14;;;;;;;10.35;3.20;;;;;;;0.38;85.96;96080.44;5027977;28;20060;-77
2022/01/06 05:50:40;;;;;;;6.30;2.97;;;;;;;0.40;85.99;96077.47;5028659;28;20042;-77
2022/01/06 05:53:07;;;;;;;8.85;3.47;;;;;;;0.39;86.12;96081.22;5028319;28;20052;-77
2022/01/06 05:55:33;;;;;;;7.55;3.60;;;;;;;0.40;86.09;96088.19;5028861;28;20071;-77
2022/01/06 05:58:00;;;;;;;9.88;3.10;;;;;;;0.39;86.27;96081.22;5028425;28;20519;-77
2022/01/06 06:00:26;;;;;;;7.38;2.83;;;;;;;0.43;86.22;96085.00;5027159;28;20050;-78
2022/01/06 06:02:54;;;;;;;8.10;2.88;;;;;;;0.43;85.99;96093.03;5028598;28;20060;-77
2022/01/06 06:05:21;;;;;;;9.90;3.15;;;;;;;0.41;85.95;96090.59;5027871;28;20049;-77
2022/01/06 06:07:47;;;;;;;5.00;2.80;;;;;;;0.42;85.94;96099.47;5028758;28;20057;-77
2022/01/06 06:10:14;;;;;;;5.95;2.97;;;;;;;0.45;86.13;96101.63;5027822;28;20050;-77
2022/01/06 06:12:40;;;;;;;6.65;2.60;;;;;;;0.42;86.09;96091.44;5028374;28;20052;-78
2022/01/06 06:15:07;;;;;;;4.80;3.00;;;;;;;0.37;86.22;96099.44;5028008;28;20050;-77
2022/01/06 06:17:34;;;;;;;5.10;2.80;;;;;;;0.35;86.43;96099.69;5028464;28;20057;-77
2022/01/06 06:20:02;;;;;;;6.95;3.00;;;;;;;0.35;86.68;96104.22;5028046;28;20061;-77
2022/01/06 06:22:28;;;;;;;6.75;3.03;;;;;;;0.34;86.51;96114.16;5028127;28;20389;-77
2022/01/06 06:24:55;;;;;;;6.75;3.10;;;;;;;0.36;86.59;96108.53;5027843;28;20084;-77
2022/01/06 06:27:21;;;;;;;9.27;3.03;;;;;;;0.36;86.47;96103.16;5027761;28;20056;-78
2022/01/06 06:29:48;;;;;;;6.53;3.08;;;;;;;0.32;86.48;96112.81;5027929;28;20060;-76
2022/01/06 06:32:14;;;;;;;5.03;2.92;;;;;;;0.30;86.71;96114.91;5027380;28;20060;-77
2022/01/06 06:34:41;;;;;;;4.75;2.90;;;;;;;0.38;86.83;96119.81;5027443;28;20053;-77
2022/01/06 06:37:09;;;;;;;5.82;3.03;;;;;;;0.40;86.49;96120.34;5027609;28;20050;-78
2022/01/06 06:39:35;;;;;;;6.93;2.55;;;;;;;0.41;86.02;96121.94;5027862;28;20042;-77
2022/01/06 06:42:01;;;;;;;7.60;2.67;;;;;;;0.39;85.89;96130.25;5027622;28;20053;-76
2022/01/06 06:44:28;;;;;;;3.92;2.40;;;;;;;0.42;86.09;96135.09;5028203;28;20064;-77
2022/01/06 06:46:54;;;;;;;6.45;2.95;;;;;;;0.40;85.86;96142.56;5046893;28;20053;-78
2022/01/06 06:49:21;;;;;;;6.40;2.47;;;;;;;0.46;85.79;96138.03;5047125;28;20048;-77
2022/01/06 06:51:48;;;;;;;7.78;2.88;;;;;;;0.50;85.52;96141.81;5047369;28;20507;-77
2022/01/06 06:54:16;;;;;;;4.47;2.45;;;;;;;0.49;85.24;96157.09;5047300;28;20056;-77
2022/01/06 06:56:43;;;;;;;6.80;2.58;;;;;;;0.51;85.84;96151.47;5047752;28;20048;-77
2022/01/06 06:59:09;;;;;;;6.75;2.92;;;;;;;0.48;86.30;96154.69;5047260;28;20049;-77
2022/01/06 07:01:36;;;;;;;6.97;2.92;;;;;;;0.42;87.03;96163.75;5047161;28;20049;-74
2022/01/06 07:04:02;;;;;;;8.40;3.22;;;;;;;0.34;87.76;96164.22;5047263;28;20060;-73
2022/01/06 07:06:29;;;;;;;6.95;2.95;;;;;;;0.34;88.50;96164.22;5047642;28;20056;-74
2022/01/06 07:08:55;;;;;;;5.85;3.00;;;;;;;0.27;89.00;96169.00;5047745;28;20427;-74
2022/01/06 07:11:23;;;;;;;7.03;3.42;;;;;;;0.22;89.40;96167.91;5047122;28;20057;-74
2022/01/06 07:13:50;;;;;;;5.57;3.17;;;;;;;0.21;89.47;96171.66;5050234;28;20048;-76
2022/01/06 07:16:16;;;;;;;5.72;2.85;;;;;;;0.24;89.50;96173.00;5036242;28;20052;-76
2022/01/06 07:18:43;;;;;;;6.53;3.00;;;;;;;0.16;89.38;96174.28;5031675;28;20049;-74
2022/01/06 07:21:09;;;;;;;5.15;2.78;;;;;;;0.15;89.38;96174.53;5030934;28;20045;-74
2022/01/06 07:23:36;;;;;;;5.57;2.90;;;;;;;0.13;89.35;96172.13;5031505;28;20848;-74
2022/01/06 07:26:02;;;;;;;6.38;2.80;;;;;;;0.13;89.30;96184.69;5031129;28;20057;-73
2022/01/06 07:28:30;;;;;;;6.38;2.65;;;;;;;0.16;88.81;96190.34;5031609;28;20052;-74
2022/01/06 07:30:57;;;;;;;5.63;2.42;;;;;;;0.19;88.81;96176.44;5031256;28;20061;-73
2022/01/06 07:33:23;;;;;;;4.85;2.60;;;;;;;0.20;88.53;96186.09;5037738;28;20421;-74
2022/01/06 07:35:49;;;;;;;8.15;2.83;;;;;;;0.25;88.17;96182.63;5051316;28;20454;-73
2022/01/06 07:38:17;;;;;;;5.00;2.50;;;;;;;0.22;87.79;96189.31;5050810;28;20052;-73
2022/01/06 07:40:44;;;;;;;4.40;2.40;;;;;;;0.23;87.69;96195.50;5050984;28;20076;-74
2022/01/06 07:43:10;;;;;;;4.93;2.80;;;;;;;0.27;87.83;96201.16;5049594;28;20049;-74
2022/01/06 07:45:38;;;;;;;6.18;2.58;;;;;;;0.28;87.46;96205.44;5041323;28;20044;-74
2022/01/06 07:48:15;;;;;;;4.93;2.40;;;;;;;0.33;87.08;96205.47;5035812;28;20056;-74
2022/01/06 07:50:42;;;;;;;4.25;2.55;;;;;;;0.37;86.75;96212.75;5051129;28;20055;-74
2022/01/06 07:53:08;;;;;;;7.18;2.33;;;;;;;0.39;86.49;96217.84;5050391;28;20527;-74
2022/01/06 07:55:35;;;;;;;6.57;2.30;;;;;;;0.32;86.51;96211.91;5050094;28;20049;-74
2022/01/06 07:58:01;;;;;;;5.15;2.20;;;;;;;0.28;86.18;96211.59;5050992;28;20131;-74
2022/01/06 08:00:28;;;;;;;3.60;2.25;;;;;;;0.21;86.14;96219.84;5050236;28;20051;-74
2022/01/06 08:02:56;;;;;;;4.10;2.15;;;;;;;0.21;86.39;96217.19;5050779;28;20045;-74
2022/01/06 08:05:26;;;;;;;6.35;2.40;;;;;;;0.28;86.18;96213.47;5050307;28;20052;-74
2022/01/06 08:07:53;;;;;;;3.90;2.00;;;;;;;0.31;86.08;96220.97;5050538;28;20527;-77
2022/01/06 08:10:21;;;;;;;3.60;1.98;;;;;;;0.29;85.62;96233.81;5049950;28;20135;-76
2022/01/06 08:12:53;;;;;;;5.97;2.20;;;;;;;0.30;85.78;96235.44;5050624;28;20053;-74
2022/01/06 08:15:20;;;;;;;3.40;2.30;;;;;;;0.35;85.83;96238.16;5045737;28;20505;-74
2022/01/06 08:17:47;;;;;;;3.30;2.15;;;;;;;0.41;85.57;96234.44;5030676;28;20512;-74
2022/01/06 08:20:16;;;;;;;5.05;2.50;;;;;;;0.34;85.53;96245.38;5030191;28;20117;-75
2022/01/06 08:22:43;;;;;;;4.22;2.33;;;;;;;0.35;85.63;96238.16;5030734;28;20060;-74
2022/01/06 08:25:11;;;;;;;3.63;2.40;;;;;;;0.35;85.66;96238.16;5039212;28;20056;-74
2022/01/06 08:27:38;;;;;;;5.50;2.50;;;;;;;0.41;85.74;96250.53;5050309;28;20416;-75
2022/01/06 08:30:08;;;;;;;5.40;2.55;;;;;;;0.47;85.52;96260.22;5049917;28;20049;-74
2022/01/06 08:32:35;;;;;;;5.82;2.17;;;;;;;0.56;85.21;96253.31;5049925;28;20515;-74
2022/01/06 08:35:02;;;;;;;4.35;2.22;;;;;;;0.59;84.95;96258.19;5050093;28;20052;-75
2022/01/06 08:37:32;;;;;;;6.07;2.30;;;;;;;0.64;84.65;96266.25;5049615;28;20048;-75
2022/01/06 08:40:02;;;;;;;6.18;3.80;;;;;;;0.69;84.61;96260.94;5049908;28;20131;-75
2022/01/06 08:42:30;;;;;;;4.40;2.78;;;;;;;0.72;84.01;96265.75;5049265;28;20055;-75
2022/01/06 08:44:58;;;;;;;4.85;2.80;;;;;;;0.75;83.74;96267.13;5048607;28;20410;-75
2022/01/06 08:47:25;;;;;;;3.63;2.50;;;;;;;0.67;83.41;96265.72;5029369;28;20053;-75
2022/01/06 08:49:52;;;;;;;4.60;2.47;;;;;;;0.68;83.74;96271.88;5028248;28;20060;-75
2022/01/06 08:52:19;;;;;;;5.22;2.38;;;;;;;0.74;83.64;96270.88;5029572;28;20132;-74
2022/01/06 08:54:47;;;;;;;5.55;2.65;;;;;;;0.79;83.47;96273.59;5030075;28;20771;-74
2022/01/06 08:57:14;;;;;;;5.60;2.70;;;;;;;0.81;83.71;96270.66;5044328;28;20056;-75
2022/01/06 08:59:41;;;;;;;4.47;2.63;;;;;;;0.88;83.83;96271.22;5049536;28;20059;-74
2022/01/06 09:02:09;;;;;;;4.43;2.33;;;;;;;0.93;83.07;96264.03;5049026;28;20045;-74
2022/01/06 09:04:36;;;;;;;5.53;2.92;;;;;;;0.91;82.75;96268.84;5049728;28;20526;-75
2022/01/06 09:07:04;;;;;;;5.50;3.28;;;;;;;0.90;82.56;96275.28;5049314;28;20072;-74
2022/01/06 09:09:31;;;;;;;4.68;3.10;;;;;;;0.93;82.50;96273.94;5049388;28;20662;-75
2022/01/06 09:11:59;;;;;;;7.95;2.92;;;;;;;0.99;82.63;96272.91;5049475;28;20076;-75
2022/01/06 09:14:26;;;;;;;4.93;2.90;;;;;;;0.96;82.05;96278.81;5049218;28;20052;-75
2022/01/06 09:16:55;;;;;;;6.40;3.38;;;;;;;1.04;82.63;96275.63;5032378;28;20049;-75
2022/01/06 09:19:24;;;;;;;8.68;3.75;;;;;;;1.09;82.59;96289.06;5028820;28;20055;-75
2022/01/06 09:21:51;;;;;;;6.13;3.35;;;;;;;1.15;82.25;96290.72;5029416;28;20057;-75
2022/01/06 09:24:20;;;;;;;6.82;3.28;;;;;;;1.18;81.54;96287.50;5028765;28;20053;-74
2022/01/06 09:26:46;;;;;;;6.18;3.20;;;;;;;1.21;82.06;96289.69;5029456;28;20452;-75
2022/01/06 09:29:14;;;;;;;4.90;3.30;;;;;;;1.29;81.72;96299.91;5028507;28;20053;-75
2022/01/06 09:31:42;;;;;;;6.03;3.20;;;;;;;1.36;81.19;96299.69;5045467;28;20555;-75
2022/01/06 09:34:09;;;;;;;6.93;3.20;;;;;;;1.53;81.44;96304.88;5049043;28;20057;-74
2022/01/06 09:36:36;;;;;;;5.45;2.67;;;;;;;1.59;80.80;96309.19;5048216;28;20124;-75
2022/01/06 09:39:04;;;;;;;6.70;3.47;;;;;;;1.66;81.03;96303.56;5048702;28;20049;-75
2022/01/06 09:41:31;;;;;;;6.55;3.00;;;;;;;1.67;80.19;96306.00;5048790;28;20045;-75
2022/01/06 09:44:00;;;;;;;4.18;2.85;;;;;;;1.61;79.89;96312.41;5049118;28;20056;-75
2022/01/06 09:46:28;;;;;;;4.03;2.65;;;;;;;1.59;80.20;96303.81;5034714;28;20096;-75
2022/01/06 09:48:57;;;;;;;7.47;3.50;;;;;;;1.55;80.81;96306.19;5028851;28;20045;-75
2022/01/06 09:51:24;;;;;;;6.43;3.33;;;;;;;1.52;80.21;96305.94;5027926;28;20063;-75
2022/01/06 09:53:53;;;;;;;5.32;2.85;;;;;;;1.55;80.97;96310.78;5028072;28;20432;-74
2022/01/06 09:56:20;;;;;;;6.85;3.33;;;;;;;1.59;80.43;96316.44;5026140;28;20416;-75
2022/01/06 09:58:47;;;;;;;7.93;3.30;;;;;;;1.57;80.65;96316.69;5026611;28;20056;-75
2022/01/06 10:01:14;;;;;;;5.80;3.08;;;;;;;1.50;80.88;96308.88;5039813;28;20060;-74
2022/01/06 10:03:45;;;;;;;4.65;3.05;;;;;;;1.51;80.98;96313.19;5048206;28;20423;-75
2022/01/06 10:06:15;;;;;;;7.90;2.83;;;;;;;1.64;81.41;96317.25;5047656;28;20049;-75
2022/01/06 10:08:43;;;;;;;7.70;2.83;;;;;;;1.95;80.85;96322.75;5048318;28;20049;-75
2022/01/06 10:11:12;;;;;;;6.82;3.20;;;;;;;2.13;79.90;96314.19;5047712;28;20049;-75
2022/01/06 10:13:39;;;;;;;7.45;2.83;;;;;;;2.20;78.70;96324.72;5048205;28;20060;-75
2022/01/06 10:16:17;;;;;;;4.45;2.95;;;;;;;2.13;78.91;96335.69;5036629;28;20122;-75
2022/01/06 10:19:00;;;;;;;6.03;3.13;;;;;;;2.22;79.29;96334.09;5028074;28;20045;-75
2022/01/06 10:21:31;;;;;;;11.73;3.00;;;;;;;2.31;78.29;96332.53;5027459;28;20046;-75
2022/01/06 10:24:03;;;;;;;7.15;3.50;;;;;;;2.44;78.68;96325.00;5027964;28;20049;-74
2022/01/06 10:26:30;;;;;;;5.50;3.35;;;;;;;2.48;77.28;96326.91;5027819;28;20041;-74
2022/01/06 10:28:56;;;;;;;7.28;3.30;;;;;;;2.40;78.06;96323.91;5028041;28;20055;-76
2022/01/06 10:31:24;;;;;;;7.25;3.30;;;;;;;2.33;77.56;96321.50;5027388;28;20049;-75
2022/01/06 10:33:51;;;;;;;5.95;3.53;;;;;;;2.35;78.58;96317.47;5028257;28;20060;-75
2022/01/06 10:36:18;;;;;;;6.10;3.17;;;;;;;2.37;78.24;96332.53;5026418;28;20455;-75
2022/01/06 10:38:54;;;;;;;5.93;3.40;;;;;;;2.48;77.90;96326.09;5027079;28;20050;-77
2022/01/06 10:41:20;;;;;;;7.20;3.70;;;;;;;2.52;78.46;96338.72;5026865;28;20060;-75
2022/01/06 10:43:51;;;;;;;5.28;3.40;;;;;;;2.47;76.46;96340.59;5027399;28;20420;-76
2022/01/06 10:46:28;;;;;;;8.68;3.80;;;;;;;2.45;78.55;96342.75;5027375;28;20704;-75
2022/01/06 10:48:59;;;;;;;6.93;3.92;;;;;;;2.46;77.28;96349.75;5027237;28;20077;-77
2022/01/06 10:51:38;;;;;;;5.32;3.22;;;;;;;2.42;78.23;96348.66;5027343;28;20045;-75
2022/01/06 10:54:10;;;;;;;6.38;3.90;;;;;;;2.57;78.63;96340.63;5027865;28;20057;-75
2022/01/06 10:56:36;;;;;;;6.60;3.88;;;;;;;2.72;77.03;96346.03;5027631;28;20045;-75
2022/01/06 10:59:03;;;;;;;5.03;2.85;;;;;;;2.65;76.17;96345.47;5027538;28;20049;-76
2022/01/06 11:01:33;;;;;;;6.93;3.58;;;;;;;2.54;77.23;96341.94;5027197;28;20411;-75
2022/01/06 11:03:59;;;;;;;7.32;3.00;;;;;;;2.50;76.95;96350.81;5027956;28;20053;-75
2022/01/06 11:06:26;;;;;;;7.82;3.45;;;;;;;2.43;76.95;96350.28;5027160;28;20072;-73
2022/01/06 11:08:54;;;;;;;7.03;3.25;;;;;;;2.28;77.17;96342.97;5027551;28;20049;-73
2022/01/06 11:11:45;;;;;;;5.68;3.38;;;;;;;2.14;77.82;96350.75;5027243;28;20045;-74
2022/01/06 11:14:17;;;;;;;8.55;3.50;;;;;;;1.93;79.09;96343.66;5026935;28;20050;-73
2022/01/06 11:16:44;;;;;;;4.95;3.35;;;;;;;1.89;79.43;96347.97;5028227;28;20060;-74
2022/01/06 11:19:12;;;;;;;9.63;3.95;;;;;;;2.07;79.79;96348.28;5027013;28;20073;-73
2022/01/06 11:21:41;;;;;;;7.20;4.13;;;;;;;2.18;78.93;96349.13;5027686;28;20151;-74
2022/01/06 11:24:14;;;;;;;8.20;3.90;;;;;;;2.18;79.03;96351.00;5027072;28;20084;-74
2022/01/06 11:26:41;;;;;;;;;;;;;;;2.16;78.50;96345.91;5028041;28;20084;-73
2022/01/06 11:29:08;;;;;;;7.60;3.33;;;;;;;2.26;78.69;96345.13;5026622;28;19925;-73
2022/01/06 11:31:41;;;;;;;4.93;3.30;;;;;;;2.46;78.52;96344.38;5027367;28;20053;-74
2022/01/06 11:34:15;;;;;;;6.70;3.38;;;;;;;2.83;78.14;96350.31;5027088;28;20057;-75
2022/01/06 11:36:43;;;;;;;6.22;3.53;;;;;;;2.84;75.96;96351.13;5027549;28;20056;-76
2022/01/06 11:39:22;;;;;;;6.90;3.10;;;;;;;2.73;74.69;96344.94;5027017;28;20757;-74
2022/01/06 11:41:51;;;;;;;4.65;2.78;;;;;;;2.66;75.00;96348.94;5027203;28;20056;-77
2022/01/06 11:44:18;;;;;;;6.38;3.22;;;;;;;2.82;75.12;96351.41;5026974;28;20646;-74
2022/01/06 11:46:47;;;;;;;5.18;3.10;;;;;;;2.96;73.38;96350.84;5028071;28;20068;-73